UTAVUTNU

Guest
Details From UTAV - TURKMENABAT
To UTNU - URGENCH
Flight Number -
Tags generated
Created
Modified
Stats Distance 203 nm / 375 km
Max Altitude 20,700 ft / 6,309 m
Waypoints 6
Social Downloads 0
Likes 0
Share VATSIM

Download

Looking for another format? Having issues loading an existing format? Contact us
Advertisement - Login to hide

Notes

Basic altitude profile: - Ascent Rate: 2500ft/min - Ascent Speed: 250kts - Cruise Altitude: 35000ft - Cruise Speed: 420kts - Descent Rate: 1500ft/min - Descent Speed: 250kts Options: - Use NATs: yes - Use PACOTS: yes - Use low airways: yes - Use high airways: yes

Route

UTAV POGON W17B URG UTNU

ID Type Via Altitude Latitude Longitude Leg Dist Tot Dist Heading (true) Name
O UTAV APT - 0 ft / 0 m 39.08333˚ 63.61333˚ - 0 nm - TURKMENABAT
POGON FIX - 20,700 ft / 6,309 m 39.84333˚ 62.74833˚ 60 nm 60 nm 319° / 318° -
MEGIL FIX W17B (AWY-HI) 18,600 ft / 5,669 m 40.46500˚ 62.01333˚ 50 nm 111 nm 318° / 318° -
SAIDA FIX W17B (AWY-LO) 16,700 ft / 5,090 m 41.20000˚ 61.12167˚ 59 nm 170 nm 318° / 317° -
URG VOR W17B (AWY-LO) 6,900 ft / 2,103 m 41.58333˚ 60.65000˚ 31 nm 202 nm 317° / 317° URGENCH VOR-DME
O UTNU APT - 0 ft / 0 m 41.58309˚ 60.64335˚ 0 nm 202 nm 267° / 267° URGENCH

Altitude Profile

Advertisement - Login to hide

Weather


0- 5 10 15 20 25 30 35+ Temperature / ° C

Clouds and Precipitation
Forecast for 2017-12-13 00:00 UTC. Updated an hour ago

Ground ~20,000 ft ~40,000 ft Winds

UTAV

Details ICAO UTAV
Name TURKMENABAT
Region Tajikistan, Turkmenistan and Uzbekistan
Timezone Asia/Ashgabat (UTC+5.0)
Stats Elevation 630 ft / 192 m (AMSL)
Location 39.083333° 63.613334°
Runways 1
Magnetic Variation 5.048° E

METAR

UTAV 122200Z 00000KT 4000 BR OVC013 M05/M07 Q1032 NOSIG

Decode

TAF

Not found

Departure Runways

ID Width Length Bearing (true) Bearing (mag) Surface Threshold Offset Overrun Length
15 138 ft / 42 m 8,945 ft / 2,727 m 155.02° 149.97° Asphalt 0 ft / 0 m 0 ft / 0 m
33 138 ft / 42 m 8,945 ft / 2,727 m 335.03° 329.98° Asphalt 0 ft / 0 m 0 ft / 0 m

UTNU

Details ICAO UTNU (UGC)
Name URGENCH
Region Tajikistan, Turkmenistan and Uzbekistan
Timezone Asia/Samarkand (UTC+5.0)
Stats Elevation 320 ft / 98 m (AMSL)
Location 41.583093° 60.643350°
Runways 1
Magnetic Variation 6.217° E

METAR

UTNU 122100Z 08004KT 8000 OVC010 M07/M09 Q1032 R31/CLRD70 NOSIG

Decode

TAF

TAF UTNU 121702Z 1218/1318 02010G20KT 7000 OVC008 TEMPO 1218/1224 VRB05KT 2000 -SN BR OVC005 PROB30 TEMPO 1218/1224 0800 -FZFG VV002

Decode

Destination Runways

ID Width Length Bearing (true) Bearing (mag) Surface Threshold Offset Overrun Length
13 165 ft / 50 m 11,063 ft / 3,372 m 138.91° 132.69° Asphalt 0 ft / 0 m 164 ft / 50 m
31 165 ft / 50 m 11,063 ft / 3,372 m 318.93° 312.71° Asphalt 0 ft / 0 m 164 ft / 50 m